Wetterstation Vordersexau
Wetterdaten: Februar 2015
Datum Temp. A. Feuchte A. Luftdruck Regen Wind Richtung Taupunkt Windchill Windben
01.02.2015 1,6 C 85 % 991,4 hPa 2,3 l/m 13,7 km/h W-SW -0,6 C -3,9 C 7,6 km/h
02.02.2015 0,6 C 87 % 1000,3 hPa 5,4 l/m 2,0 km/h SW -1,3 C 0,1 C 1,1 km/h
03.02.2015 -0,1 C 83 % 1000,9 hPa 5,4 l/m 0,0 km/h SO -2,6 C -0,1 C 0,0 km/h
04.02.2015 -0,7 C 78 % 1007,6 hPa 0,8 l/m 1,1 km/h N-NO -4,2 C -1,0 C 0,6 km/h
05.02.2015 -0,5 C 75 % 1010,8 hPa 0,0 l/m 3,7 km/h N-NO -4,4 C -1,7 C 2,0 km/h
06.02.2015 1,0 C 66 % 1013,5 hPa 0,0 l/m 0,9 km/h N-NO -4,7 C 0,8 C 0,5 km/h
07.02.2015 -0,2 C 65 % 1022,5 hPa 0,0 l/m 0,3 km/h NO -6,4 C -0,3 C 0,2 km/h
08.02.2015 -2,0 C 82 % 1025,7 hPa 0,8 l/m 0,0 km/h SO -4,7 C -2,0 C 0,0 km/h
09.02.2015 0,2 C 79 % 1028,8 hPa 0,8 l/m 0,9 km/h SO -3,1 C -0,2 C 0,5 km/h
10.02.2015 3,3 C 75 % 1026,4 hPa 0,0 l/m 0,0 km/h N-NO -1,1 C 3,3 C 0,0 km/h
11.02.2015 1,3 C 77 % 1022,5 hPa 0,0 l/m 0,2 km/h O-SO -2,5 C 1,3 C 0,1 km/h
12.02.2015 -1,3 C 85 % 1020,1 hPa 0,0 l/m 0,0 km/h N-NW -3,4 C -1,3 C 0,0 km/h
13.02.2015 1,6 C 81 % 1015,5 hPa 0,0 l/m 0,0 km/h W-NW -1,4 C 1,6 C 0,0 km/h
14.02.2015 5,5 C 80 % 1007,5 hPa 3,1 l/m 2,4 km/h SO 2,1 C 4,9 C 1,4 km/h
15.02.2015 0,9 C 87 % 1009,4 hPa 0,0 l/m 0,1 km/h W-NW -1,1 C 0,9 C 0,1 km/h
16.02.2015 1,2 C 87 % 1016,8 hPa 0,0 l/m 0,2 km/h W -0,8 C 1,2 C 0,1 km/h
17.02.2015 1,2 C 86 % 1029,2 hPa 0,0 l/m 0,2 km/h W-NW -0,8 C 1,2 C 0,1 km/h
18.02.2015 4,2 C 77 % 1035,0 hPa 0,0 l/m 1,0 km/h NO 0,4 C 4,0 C 0,6 km/h
19.02.2015 2,8 C 75 % 1028,3 hPa 0,0 l/m 0,4 km/h SO -1,4 C 2,7 C 0,2 km/h
20.02.2015 5,4 C 68 % 1013,6 hPa 0,0 l/m 4,3 km/h O-NO -1,0 C 4,4 C 2,4 km/h
21.02.2015 4,4 C 81 % 1000,4 hPa 4,7 l/m 6,3 km/h S-SW 1,4 C 2,4 C 3,5 km/h
22.02.2015 3,1 C 85 % 1007,2 hPa 0,0 l/m 0,1 km/h SO 0,8 C 3,1 C 0,0 km/h
23.02.2015 3,1 C 86 % 1000,8 hPa 12,4 l/m 5,9 km/h O-SO 1,0 C 1,2 C 3,3 km/h
24.02.2015 4,8 C 79 % 1008,3 hPa 5,4 l/m 8,2 km/h W-SW 1,4 C 2,1 C 4,5 km/h
25.02.2015 5,8 C 74 % 1017,0 hPa 1,6 l/m 0,2 km/h O-SO 0,9 C 5,8 C 0,1 km/h
26.02.2015 6,6 C 68 % 1015,8 hPa 0,0 l/m 0,8 km/h O-NO 0,5 C 6,5 C 0,5 km/h
27.02.2015 4,2 C 83 % 1011,8 hPa 10,4 l/m 1,0 km/h N-NO 1,5 C 4,2 C 0,6 km/h
28.02.2015 5,3 C 76 % 1017,6 hPa 0,4 l/m 1,2 km/h SO 1,1 C 5,2 C 0,7 km/h
Min-Datum 04.02.15 20.02.15 01.02.15 13 Tage 01.02.15 - 07.02.15 09.02.15 01.02.15
Min-Zeit 05:53 15:53 02:53 - 05:53 - 05:53 00:53 05:53
Minimum -6,3 C 36 % 985,9 hPa - 0,0 km/h - -9,2 C -15,0 C 0,0 km/h
Max-Datum 20.02.15 02.02.15 17.02.15 23.02.15 21.02.15 - 14.02.15 26.02.15 21.02.15
Max-Zeit 15:53 17:53 23:53 10:53 11:53 - 13:53 15:53 11:53
Maximum 18,0 C 88 % 1036,5 hPa 12,4 l/m 38,2 km/h
S-SW
- 8,6 C 17,9 C 21,2 km/h
S-SW
Durchschnitt 2,3 C 79 % 1014,5 hPa #53,5 l/m 2,0 km/h SO -1,2 C 1,7 C 1,1 km/h

Durchschnitt Minimum Temp.-1,9 C
Durchschnitt Maximum Temp.8,9 C
www.sexauwetter.de